Time;durP1;ratioP1;P1;durP2;ratioP2;P2;SDS_P1;SDS_P2;PMS_P1;PMS_P2;Temp;Humidity;BMP_temperature;BMP_pressure;BME280_temperature;BME280_humidity;BME280_pressure;Samples;Min_cycle;Max_cycle;Signal;HPM_P1;HPM_P2
2022/11/01 00:02:10;;;;;;;57.50;29.07;;;;;;;8.53;88.67;95188.70;1652823;85;20955;-53
2022/11/01 00:04:37;;;;;;;51.53;25.85;;;;;;;8.55;88.64;95193.75;1632516;85;21358;-52
2022/11/01 00:07:05;;;;;;;53.23;28.12;;;;;;;8.53;88.42;95188.70;1634022;85;21074;-53
2022/11/01 00:09:31;;;;;;;44.13;26.20;;;;;;;8.49;88.65;95188.02;1631048;86;21160;-54
2022/11/01 00:12:00;;;;;;;41.48;24.45;;;;;;;8.52;88.51;95185.80;1642369;85;20980;-52
2022/11/01 00:14:26;;;;;;;42.85;25.72;;;;;;;8.47;88.30;95189.00;1645469;85;21017;-53
2022/11/01 00:16:53;;;;;;;51.20;26.33;;;;;;;8.39;88.09;95183.50;1637496;86;21173;-54
2022/11/01 00:19:21;;;;;;;67.72;32.53;;;;;;;8.29;87.95;95185.09;1640243;85;21129;-53
2022/11/01 00:21:49;;;;;;;58.28;31.95;;;;;;;8.15;88.12;95187.48;1635949;86;21180;-54
2022/11/01 00:24:16;;;;;;;55.12;28.47;;;;;;;8.09;88.30;95186.41;1623235;85;21114;-52
2022/11/01 00:26:43;;;;;;;47.43;26.17;;;;;;;8.07;88.39;95188.80;1623273;86;21078;-53
2022/11/01 00:29:11;;;;;;;39.05;22.98;;;;;;;8.02;88.60;95183.80;1638858;85;21125;-52
2022/11/01 00:31:37;;;;;;;47.17;24.52;;;;;;;8.01;89.01;95176.00;1633025;86;21126;-52
2022/11/01 00:34:05;;;;;;;45.95;25.97;;;;;;;8.04;89.34;95181.42;1647825;84;21443;-54
2022/11/01 00:36:33;;;;;;;48.20;26.60;;;;;;;8.16;89.69;95182.76;1649811;86;21015;-53
2022/11/01 00:39:02;;;;;;;57.95;28.50;;;;;;;8.27;89.37;95177.27;1639190;85;21466;-54
2022/11/01 00:41:29;;;;;;;46.48;26.30;;;;;;;8.41;89.33;95170.76;1649862;84;21176;-53
2022/11/01 00:43:57;;;;;;;50.98;27.45;;;;;;;8.55;89.04;95172.60;1644014;84;21086;-55
2022/11/01 00:46:24;;;;;;;50.10;27.93;;;;;;;8.58;88.43;95176.48;1637085;84;21240;-52
2022/11/01 00:48:52;;;;;;;52.90;28.10;;;;;;;8.61;88.62;95173.64;1627107;86;21098;-53
2022/11/01 00:51:18;;;;;;;51.60;27.60;;;;;;;8.72;88.57;95173.41;1619601;86;21196;-53
2022/11/01 00:53:45;;;;;;;52.03;27.45;;;;;;;8.85;88.31;95166.87;1616999;86;21248;-51
2022/11/01 00:56:12;;;;;;;46.73;24.87;;;;;;;8.92;87.61;95166.09;1619642;86;21530;-53
2022/11/01 00:58:39;;;;;;;39.30;23.80;;;;;;;8.96;86.90;95164.64;1624680;85;21257;-52
2022/11/01 01:01:06;;;;;;;35.60;22.93;;;;;;;8.92;86.06;95166.09;1641404;86;21097;-53
2022/11/01 01:03:34;;;;;;;38.48;23.32;;;;;;;8.81;86.12;95160.66;1645750;85;21048;-52
2022/11/01 01:06:01;;;;;;;46.53;24.85;;;;;;;8.72;86.08;95161.07;1588652;87;21387;-52
2022/11/01 01:08:28;;;;;;;43.05;24.40;;;;;;;8.60;86.27;95158.39;1642872;85;21176;-53
2022/11/01 01:10:55;;;;;;;40.25;23.83;;;;;;;8.52;86.26;95159.74;1642231;84;21162;-53
2022/11/01 01:13:22;;;;;;;45.43;25.97;;;;;;;8.49;86.77;95162.55;1641257;84;21153;-53
2022/11/01 01:15:49;;;;;;;42.10;22.52;;;;;;;8.48;86.80;95155.52;1653436;84;21554;-52
2022/11/01 01:18:17;;;;;;;36.95;21.65;;;;;;;8.47;87.16;95155.34;1643873;84;21197;-53
2022/11/01 01:20:45;;;;;;;53.30;23.83;;;;;;;8.43;87.22;95152.67;1639914;85;21088;-54
2022/11/01 01:23:13;;;;;;;45.60;25.97;;;;;;;8.41;87.32;95159.18;1639101;85;21442;-53
2022/11/01 01:25:41;;;;;;;44.67;24.65;;;;;;;8.45;88.16;95148.91;1652715;84;20970;-54
2022/11/01 01:28:08;;;;;;;40.33;23.57;;;;;;;8.50;87.43;95155.28;1642608;84;21035;-53
2022/11/01 01:30:40;;;;;;;46.60;24.40;;;;;;;8.52;87.19;95155.63;1647500;85;21287;-54
2022/11/01 01:33:06;;;;;;;44.88;24.98;;;;;;;8.51;86.73;95156.83;1614392;86;21137;-52
2022/11/01 01:35:33;;;;;;;49.38;25.27;;;;;;;8.41;86.42;95152.94;1648517;85;21026;-52
2022/11/01 01:38:00;;;;;;;36.50;21.40;;;;;;;8.34;86.51;95148.95;1635877;85;21153;-53
2022/11/01 01:40:28;;;;;;;46.63;24.95;;;;;;;8.26;86.40;95152.43;1650782;84;21545;-53
2022/11/01 01:42:55;;;;;;;49.15;23.25;;;;;;;8.13;86.42;95143.28;1622760;86;21169;-53
2022/11/01 01:45:33;;;;;;;42.30;23.20;;;;;;;8.16;87.50;95142.44;1647063;84;20992;-53
2022/11/01 01:48:25;;;;;;;44.60;24.20;;;;;;;8.23;87.29;95148.41;1630959;85;21079;-52
2022/11/01 01:51:01;;;;;;;46.05;23.15;;;;;;;8.18;87.21;95145.56;1645969;85;21031;-53
2022/11/01 01:53:37;;;;;;;36.28;21.90;;;;;;;8.07;87.21;95139.47;1641717;86;20939;-53
2022/11/01 01:56:12;;;;;;;39.20;23.02;;;;;;;8.00;87.70;95147.84;1596543;87;21191;-53
2022/11/01 01:58:57;;;;;;;37.38;21.07;;;;;;;7.98;87.82;95141.22;1653015;84;21422;-53
2022/11/01 02:01:25;;;;;;;38.80;19.40;;;;;;;7.92;88.13;95147.78;1640797;85;21577;-52
2022/11/01 02:03:52;;;;;;;33.55;20.37;;;;;;;7.99;88.72;95149.03;1650779;85;20992;-52
2022/11/01 02:06:21;;;;;;;45.15;21.90;;;;;;;8.08;88.88;95135.54;1637499;86;21007;-52
2022/11/01 02:08:55;;;;;;;32.17;20.40;;;;;;;8.15;89.04;95138.16;1592910;88;21208;-52
2022/11/01 02:11:22;;;;;;;33.53;20.37;;;;;;;8.23;88.98;95140.95;1649973;86;21101;-53
2022/11/01 02:13:51;;;;;;;33.18;19.23;;;;;;;8.31;89.07;95128.66;1622588;85;21604;-52
2022/11/01 02:17:05;;;;;;;35.43;19.55;;;;;;;8.40;88.70;95134.95;1654200;85;21102;-56
2022/11/01 02:19:44;;;;;;;32.28;20.80;;;;;;;8.45;88.57;95129.71;1645701;85;21578;-53
2022/11/01 02:22:57;;;;;;;40.00;20.25;;;;;;;8.48;88.38;95126.73;1644091;85;21464;-52
2022/11/01 02:25:45;;;;;;;40.83;20.57;;;;;;;8.47;87.80;95131.43;1588749;87;21086;-53
2022/11/01 02:28:45;;;;;;;43.48;22.17;;;;;;;8.40;87.78;95132.20;1640518;84;21542;-53
2022/11/01 02:31:54;;;;;;;39.08;23.87;;;;;;;8.38;87.45;95135.94;1632619;85;21069;-52
2022/11/01 02:34:44;;;;;;;32.73;21.27;;;;;;;8.30;87.43;95136.71;1631461;84;21573;-53
2022/11/01 02:37:18;;;;;;;45.03;25.12;;;;;;;8.26;87.36;95137.36;1637572;86;21328;-55
2022/11/01 02:39:51;;;;;;;44.90;26.70;;;;;;;8.31;88.15;95132.77;1640869;84;21097;-52
2022/11/01 02:42:22;;;;;;;40.40;22.62;;;;;;;8.39;87.94;95138.27;1594797;87;21530;-53
2022/11/01 02:44:54;;;;;;;38.28;20.72;;;;;;;8.41;87.14;95141.36;1639976;86;21126;-53
2022/11/01 02:47:21;;;;;;;32.43;19.23;;;;;;;8.36;86.78;95136.38;1639735;86;21051;-53
2022/11/01 02:49:51;;;;;;;36.28;22.02;;;;;;;8.33;86.73;95139.97;1632066;85;21335;-53
2022/11/01 02:52:22;;;;;;;38.40;22.25;;;;;;;8.28;87.04;95141.81;1620676;85;20986;-53
2022/11/01 02:54:54;;;;;;;39.18;21.40;;;;;;;8.29;87.40;95138.49;1602650;87;21213;-53
2022/11/01 02:57:37;;;;;;;45.88;19.65;;;;;;;8.34;87.66;95137.41;1641730;84;21090;-53
2022/11/01 03:00:19;;;;;;;36.83;21.60;;;;;;;8.33;87.00;95139.97;1636295;84;21102;-52
2022/11/01 03:02:47;;;;;;;37.48;21.75;;;;;;;8.26;86.85;95144.21;1594427;87;21958;-53
2022/11/01 03:05:29;;;;;;;31.52;19.77;;;;;;;8.16;86.61;95139.70;1631178;85;21611;-53
2022/11/01 03:08:09;;;;;;;35.80;23.30;;;;;;;8.06;86.49;95140.67;1595045;87;21121;-52
2022/11/01 03:10:58;;;;;;;32.13;20.90;;;;;;;7.98;87.07;95147.49;1640176;84;21259;-53
2022/11/01 03:14:04;;;;;;;35.33;20.60;;;;;;;7.95;87.06;95153.03;1625800;87;21086;-52
2022/11/01 03:16:41;;;;;;;46.55;23.80;;;;;;;7.83;86.82;95148.94;1639361;84;21496;-52
2022/11/01 03:19:46;;;;;;;33.20;19.92;;;;;;;7.66;87.12;95145.92;1632882;85;21133;-53
2022/11/01 03:22:24;;;;;;;36.08;20.68;;;;;;;7.67;87.20;95153.56;1626492;86;21055;-53
2022/11/01 03:24:59;;;;;;;33.63;20.77;;;;;;;7.66;87.46;95147.30;1649127;85;21085;-52
2022/11/01 03:27:33;;;;;;;38.98;20.75;;;;;;;7.72;87.93;95145.61;1643587;85;20958;-52
2022/11/01 03:30:04;;;;;;;36.60;20.00;;;;;;;7.75;87.75;95146.17;1594341;88;21263;-53
2022/11/01 03:32:39;;;;;;;30.35;18.73;;;;;;;7.85;88.17;95152.64;1576768;89;22358;-54
2022/11/01 03:35:08;;;;;;;44.27;23.55;;;;;;;8.00;88.08;95150.58;1652952;84;21038;-52
2022/11/01 03:37:35;;;;;;;42.62;25.92;;;;;;;8.03;86.54;95152.48;1652692;84;21507;-53
2022/11/01 03:40:03;;;;;;;40.50;24.23;;;;;;;7.91;85.64;95150.34;1649813;86;21603;-53
2022/11/01 03:42:30;;;;;;;55.38;26.73;;;;;;;7.71;85.60;95141.33;1647283;86;21256;-53
2022/11/01 03:44:59;;;;;;;46.80;26.20;;;;;;;7.52;85.51;95146.17;1614404;86;21102;-52
2022/11/01 03:47:26;;;;;;;45.92;24.90;;;;;;;7.42;85.82;95144.98;1625129;84;21061;-53
2022/11/01 03:50:17;;;;;;;52.65;28.30;;;;;;;7.33;85.82;95150.23;1628498;84;21048;-53
2022/11/01 03:52:44;;;;;;;47.10;26.95;;;;;;;7.26;86.00;95144.86;1628194;84;21280;-53
2022/11/01 03:55:18;;;;;;;47.73;27.30;;;;;;;7.27;86.64;95145.83;1634965;86;21183;-54
2022/11/01 03:57:54;;;;;;;62.90;35.25;;;;;;;7.32;86.56;95146.72;1639471;85;20963;-54
2022/11/01 04:00:29;;;;;;;63.65;35.80;;;;;;;7.40;86.83;95146.79;1636072;86;21125;-52
2022/11/01 04:02:57;;;;;;;41.40;24.55;;;;;;;7.55;86.73;95148.06;1631167;84;21451;-53
2022/11/01 04:05:28;;;;;;;47.03;28.57;;;;;;;7.64;86.04;95145.58;1640076;85;21282;-52
2022/11/01 04:07:56;;;;;;;44.98;29.42;;;;;;;7.71;85.61;95147.42;1647701;85;21161;-52
2022/11/01 04:10:25;;;;;;;45.50;28.00;;;;;;;7.70;85.00;95142.52;1632975;86;21150;-53
2022/11/01 04:12:53;;;;;;;52.48;26.12;;;;;;;7.64;84.77;95141.47;1608840;86;21042;-53
2022/11/01 04:21:23;;;;;;;76.25;44.45;;;;;;;7.31;84.82;95138.33;1646156;85;21182;-52
2022/11/01 04:23:50;;;;;;;64.42;38.98;;;;;;;7.21;84.74;95146.13;1641048;85;20946;-52
2022/11/01 04:26:19;;;;;;;112.77;63.00;;;;;;;7.04;84.91;95137.44;1632581;84;21027;-53
2022/11/01 04:28:55;;;;;;;61.77;35.00;;;;;;;6.91;85.05;95133.11;1633429;85;21079;-53
2022/11/01 04:31:14;;;;;;;36.55;24.00;;;;;;;6.77;85.06;95131.98;1655144;85;21101;-53
2022/11/01 04:33:40;;;;;;;27.07;18.40;;;;;;;6.64;85.37;95132.94;1650845;86;21282;-52
2022/11/01 04:36:09;;;;;;;35.50;17.15;;;;;;;6.56;85.77;95136.97;1639348;86;21003;-52
2022/11/01 04:38:36;;;;;;;27.58;18.15;;;;;;;6.56;86.37;95134.98;1606011;86;21103;-54
2022/11/01 04:41:03;;;;;;;49.93;27.13;;;;;;;6.63;86.55;95130.02;1647401;84;21620;-54
2022/11/01 04:43:30;;;;;;;99.05;50.95;;;;;;;6.69;86.43;95126.41;1618374;85;21112;-54
2022/11/01 04:45:58;;;;;;;168.32;73.52;;;;;;;6.76;86.65;95122.80;1627515;86;21186;-55
2022/11/01 04:48:28;;;;;;;153.87;68.25;;;;;;;6.81;86.19;95120.97;1596609;87;20959;-53
2022/11/01 04:50:56;;;;;;;145.05;65.65;;;;;;;6.84;86.43;95124.23;1578894;88;21058;-53
2022/11/01 04:53:22;;;;;;;139.82;60.52;;;;;;;6.91;85.93;95124.15;1639718;85;21051;-52
2022/11/01 04:55:49;;;;;;;102.62;48.70;;;;;;;6.95;85.73;95126.23;1647234;84;21184;-53
2022/11/01 04:58:16;;;;;;;50.15;27.13;;;;;;;7.05;85.91;95133.50;1639568;85;21171;-52
2022/11/01 05:00:43;;;;;;;39.05;20.90;;;;;;;7.12;85.24;95128.70;1640577;85;21082;-53
2022/11/01 05:03:10;;;;;;;36.63;20.05;;;;;;;7.05;85.02;95126.67;1647993;85;21019;-53
2022/11/01 05:05:39;;;;;;;25.25;17.87;;;;;;;6.87;84.44;95131.03;1632760;85;21115;-54
2022/11/01 05:08:09;;;;;;;27.82;17.23;;;;;;;6.73;84.90;95128.50;1604891;87;21117;-53
2022/11/01 05:10:41;;;;;;;35.30;18.75;;;;;;;6.70;84.91;95124.47;1599451;87;21848;-54
2022/11/01 05:13:11;;;;;;;32.63;20.48;;;;;;;6.58;84.73;95127.18;1635627;84;21284;-54
2022/11/01 05:15:38;;;;;;;36.17;22.00;;;;;;;6.50;85.29;95126.32;1637382;85;21130;-54
2022/11/01 05:18:06;;;;;;;44.15;27.27;;;;;;;6.52;85.40;95125.31;1638261;86;21185;-55
2022/11/01 05:20:34;;;;;;;46.33;28.00;;;;;;;6.56;85.83;95131.50;1637904;85;21093;-52
2022/11/01 05:23:02;;;;;;;45.85;24.85;;;;;;;6.63;85.81;95119.88;1619491;87;21466;-52
2022/11/01 05:25:30;;;;;;;38.80;21.85;;;;;;;6.69;85.43;95129.76;1608058;86;21039;-53
2022/11/01 05:28:06;;;;;;;37.93;21.42;;;;;;;6.69;85.62;95120.95;1652188;83;20979;-52
2022/11/01 05:30:34;;;;;;;32.30;18.92;;;;;;;6.71;85.52;95122.67;1622012;86;21192;-53
2022/11/01 05:33:01;;;;;;;31.85;19.25;;;;;;;6.69;85.56;95125.05;1649959;84;21047;-52
2022/11/01 05:35:29;;;;;;;40.17;21.95;;;;;;;6.62;85.39;95123.80;1654285;85;21193;-53
2022/11/01 05:37:57;;;;;;;36.23;22.10;;;;;;;6.56;85.57;95135.59;1640387;85;21154;-53
2022/11/01 05:40:24;;;;;;;42.88;25.17;;;;;;;6.54;85.55;95132.51;1632099;85;21070;-55
2022/11/01 05:42:52;;;;;;;52.15;29.40;;;;;;;6.51;85.66;95131.36;1641517;85;20960;-56
2022/11/01 05:45:20;;;;;;;74.40;40.30;;;;;;;6.49;85.89;95134.34;1649791;86;20999;-55
2022/11/01 06:58:18;;;;;;;53.45;32.38;;;;;;;8.61;90.01;95120.16;1652861;82;21054;31
2022/11/01 07:00:46;;;;;;;66.28;35.50;;;;;;;8.84;89.54;95118.66;1598690;87;21965;-56
2022/11/01 07:03:16;;;;;;;42.73;25.82;;;;;;;9.03;89.55;95116.48;1599161;88;21575;-54
2022/11/01 07:15:17;;;;;;;35.83;21.10;;;;;;;9.87;87.10;95105.48;1558267;88;21310;-57
2022/11/01 07:17:46;;;;;;;37.23;19.98;;;;;;;10.10;86.73;95105.86;1598905;86;21085;-57
2022/11/01 07:20:13;;;;;;;34.98;19.10;;;;;;;10.28;85.91;95097.30;1592041;88;21010;-57
2022/11/01 07:22:40;;;;;;;37.48;16.73;;;;;;;10.43;85.45;95101.77;1592983;87;21621;-56
2022/11/01 07:25:09;;;;;;;27.48;15.70;;;;;;;10.53;84.94;95095.20;1601393;87;21038;-54
2022/11/01 07:27:36;;;;;;;39.42;19.15;;;;;;;10.65;84.89;95090.30;1606220;87;21018;-59
2022/11/01 07:30:05;;;;;;;34.08;15.55;;;;;;;10.78;84.03;95098.14;1601077;88;21480;-51
2022/11/01 07:32:32;;;;;;;21.35;12.35;;;;;;;10.79;83.52;95091.42;1600560;87;21068;-56
2022/11/01 07:34:59;;;;;;;32.13;14.28;;;;;;;10.83;83.14;95092.08;1604567;87;21159;-54
2022/11/01 07:37:30;;;;;;;35.00;15.75;;;;;;;10.87;82.97;95080.38;1609404;87;21104;-53
2022/11/01 07:39:58;;;;;;;31.10;14.68;;;;;;;10.96;82.72;95074.96;1609653;88;21273;-57
2022/11/01 07:42:25;;;;;;;28.45;14.40;;;;;;;11.08;82.04;95075.57;1591077;88;21098;-60
2022/11/01 07:44:52;;;;;;;19.60;12.10;;;;;;;11.16;81.44;95067.23;1603972;87;21162;-56
2022/11/01 07:47:20;;;;;;;23.60;12.80;;;;;;;11.21;81.01;95068.05;1587742;88;22559;-54
2022/11/01 07:49:49;;;;;;;29.02;15.98;;;;;;;11.31;80.82;95064.81;1598272;87;21595;-56
2022/11/01 07:52:17;;;;;;;22.62;11.30;;;;;;;11.43;80.60;95062.61;1581855;88;21248;-55
2022/11/01 07:54:44;;;;;;;26.30;12.15;;;;;;;11.49;79.84;95057.48;1574431;88;21085;-54
2022/11/01 07:57:11;;;;;;;23.02;10.10;;;;;;;11.54;79.78;95054.15;1562454;88;21565;-55
2022/11/01 07:59:42;;;;;;;29.65;13.43;;;;;;;11.62;79.51;95053.33;1584722;89;21028;-58
2022/11/01 08:02:10;;;;;;;16.82;9.43;;;;;;;11.68;79.50;95050.94;1580745;88;21103;-55
2022/11/01 08:04:38;;;;;;;26.05;10.65;;;;;;;11.76;79.16;95049.50;1580027;87;21150;-54
2022/11/01 08:07:06;;;;;;;17.75;9.45;;;;;;;11.80;78.68;95048.76;1585317;87;21192;-55
2022/11/01 08:09:33;;;;;;;14.47;8.63;;;;;;;11.86;78.53;95048.33;1534260;88;21108;-53
2022/11/01 08:12:00;;;;;;;14.55;8.58;;;;;;;11.97;78.21;95040.47;1583068;88;21701;-56
2022/11/01 08:14:33;;;;;;;31.57;10.25;;;;;;;12.06;78.31;95045.28;1584690;88;21109;-57
2022/11/01 08:17:01;;;;;;;21.80;9.85;;;;;;;12.24;78.06;95044.02;1562327;88;21232;-58
2022/11/01 08:19:28;;;;;;;19.05;9.33;;;;;;;12.34;77.67;95049.14;1600427;88;21529;-58
2022/11/01 08:21:59;;;;;;;22.00;9.63;;;;;;;12.44;77.38;95042.44;1563948;89;22448;-59
2022/11/01 08:24:32;;;;;;;27.93;12.43;;;;;;;12.57;77.15;95037.61;1583560;88;21041;-59
2022/11/01 08:27:01;;;;;;;21.30;10.78;;;;;;;12.73;76.61;95034.62;1569331;89;21113;-60
2022/11/01 08:29:28;;;;;;;28.98;11.93;;;;;;;12.90;76.05;95036.68;1581809;89;21643;-57
2022/11/01 08:31:56;;;;;;;23.52;12.18;;;;;;;13.04;75.39;95032.01;1554489;90;21101;-55
2022/11/01 08:34:24;;;;;;;22.13;11.63;;;;;;;13.25;75.21;95029.01;1615116;86;21049;-59
2022/11/01 08:36:51;;;;;;;19.92;9.63;;;;;;;13.45;74.38;95030.10;1592801;87;21099;-52
2022/11/01 08:39:19;;;;;;;19.37;10.45;;;;;;;13.62;73.75;95025.83;1614217;85;21066;-58
2022/11/01 08:41:52;;;;;;;16.95;10.55;;;;;;;13.86;73.38;95020.47;1611270;85;21180;-60
2022/11/01 08:44:19;;;;;;;;;;;;;;;14.12;72.95;95019.68;1615299;86;21227;-53
2022/11/01 08:46:57;;;;;;;24.90;8.53;;;;;;;14.34;71.77;95011.98;1607870;87;20161;-60
2022/11/01 08:49:24;;;;;;;14.03;7.92;;;;;;;14.52;70.76;95019.64;1622663;86;21098;-55
2022/11/01 08:51:51;;;;;;;16.40;7.33;;;;;;;14.72;70.02;95016.34;1626530;86;21066;-54
2022/11/01 08:54:24;;;;;;;31.25;8.60;;;;;;;14.95;69.28;95006.70;1626922;86;21264;-58
2022/11/01 08:56:52;;;;;;;19.23;8.35;;;;;;;15.21;68.83;95007.05;1625440;85;21074;-57
2022/11/01 08:59:19;;;;;;;18.10;7.62;;;;;;;15.42;68.34;95000.47;1618875;85;21017;-58
2022/11/01 09:01:46;;;;;;;16.48;8.45;;;;;;;15.58;67.94;94996.66;1603146;86;21096;-57
2022/11/01 09:04:14;;;;;;;17.20;7.60;;;;;;;15.69;67.41;94996.89;1620724;85;21128;-57
2022/11/01 09:06:41;;;;;;;17.32;8.00;;;;;;;15.75;66.38;94996.38;1631603;85;21614;-51
2022/11/01 09:09:09;;;;;;;32.53;8.35;;;;;;;15.78;65.84;94991.29;1572755;87;21061;-53
2022/11/01 09:11:36;;;;;;;15.20;7.42;;;;;;;15.87;65.79;94986.29;1612330;86;21183;-59
2022/11/01 09:14:04;;;;;;;21.82;8.98;;;;;;;16.03;65.67;94992.15;1624193;85;22343;-62
2022/11/01 09:16:32;;;;;;;17.32;7.62;;;;;;;16.22;64.71;94987.18;1627267;86;21072;-60
2022/11/01 09:19:02;;;;;;;19.05;8.63;;;;;;;16.27;64.53;94980.98;1637032;86;21244;-57
2022/11/01 09:21:29;;;;;;;14.28;8.05;;;;;;;16.37;64.12;94974.89;1632135;85;21163;-59
2022/11/01 09:23:58;;;;;;;25.85;7.97;;;;;;;16.57;64.13;94974.34;1598342;88;21097;-56
2022/11/01 09:26:28;;;;;;;14.10;5.97;;;;;;;16.84;63.47;94968.48;1618291;86;21601;-54
2022/11/01 09:28:57;;;;;;;9.98;6.25;;;;;;;17.05;62.96;94965.11;1616177;87;21603;-57
2022/11/01 09:31:24;;;;;;;13.32;7.35;;;;;;;17.26;61.93;94963.91;1632350;86;21229;-55
2022/11/01 09:33:59;;;;;;;18.52;8.73;;;;;;;17.48;61.51;94966.38;1629503;86;22274;-56
2022/11/01 09:36:27;;;;;;;23.57;8.23;;;;;;;17.70;60.61;94964.52;1612334;87;21226;-56
2022/11/01 09:38:55;;;;;;;15.50;7.90;;;;;;;17.90;60.04;94956.14;1610244;86;21110;-60
2022/11/01 09:41:37;;;;;;;15.72;7.53;;;;;;;18.17;59.63;94952.91;1602859;87;21048;-57
2022/11/01 09:44:05;;;;;;;21.90;7.80;;;;;;;18.61;58.70;94949.95;1621263;86;21307;-58
2022/11/01 09:46:38;;;;;;;22.20;7.22;;;;;;;19.01;57.55;94945.56;1623365;86;21521;-56
2022/11/01 09:49:05;;;;;;;24.12;13.25;;;;;;;19.42;56.56;94937.86;1615374;86;21118;-58
2022/11/01 09:51:34;;;;;;;20.02;10.15;;;;;;;19.84;54.99;94932.83;1608664;87;22011;-60
2022/11/01 09:54:03;;;;;;;24.20;7.90;;;;;;;20.16;54.24;94932.21;1604946;88;21058;-55
2022/11/01 09:56:35;;;;;;;25.45;8.83;;;;;;;20.42;53.25;94933.53;1603032;86;21617;-60
2022/11/01 09:59:41;;;;;;;21.80;8.50;;;;;;;20.66;52.94;94924.02;1633551;85;21463;-61
2022/11/01 10:02:29;;;;;;;19.65;7.90;;;;;;;20.83;52.36;94923.41;1629885;85;21103;-58
2022/11/01 10:05:39;;;;;;;30.60;9.78;;;;;;;20.96;51.46;94922.23;1641836;85;21004;-65
2022/11/01 10:08:50;;;;;;;19.07;7.97;;;;;;;20.86;52.51;94916.02;1598912;86;21165;-54
2022/11/01 10:11:53;;;;;;;15.10;7.72;;;;;;;20.87;52.86;94908.52;1638589;86;21286;-55
2022/11/01 10:14:26;;;;;;;;;;;;;;;20.91;53.16;94909.67;1600758;86;21146;-56
2022/11/01 10:17:04;;;;;;;25.02;7.62;;;;;;;20.99;53.27;94903.05;1623820;85;20217;-54
2022/11/01 10:19:34;;;;;;;19.90;6.67;;;;;;;20.90;52.51;94906.75;1611409;86;21153;-56
2022/11/01 10:22:14;;;;;;;13.65;6.62;;;;;;;20.75;52.91;94899.97;1627950;85;21100;-56
2022/11/01 10:25:00;;;;;;;18.17;7.47;;;;;;;20.88;53.68;94901.66;1638782;86;21109;-56
2022/11/01 10:28:00;;;;;;;6.72;4.45;;;;;;;21.12;53.19;94894.13;1624587;86;21666;-57
2022/11/01 10:30:44;;;;;;;10.05;4.83;;;;;;;21.20;52.37;94899.31;1598698;87;21112;-55
2022/11/01 10:33:41;;;;;;;18.05;5.65;;;;;;;21.18;52.59;94895.64;1629642;85;21238;-55
2022/11/01 10:36:13;;;;;;;10.80;5.03;;;;;;;21.23;51.98;94886.46;1634154;86;21888;-55
2022/11/01 10:38:47;;;;;;;;;;;;;;;21.25;52.48;94886.70;1622211;86;21882;-56
2022/11/01 10:41:23;;;;;;;14.70;5.95;;;;;;;21.44;52.66;94878.52;1625273;87;20223;-58
2022/11/01 10:44:04;;;;;;;14.73;5.00;;;;;;;21.94;51.88;94883.28;1617683;85;21032;-55
2022/11/01 10:46:38;;;;;;;10.98;4.12;;;;;;;22.63;51.58;94874.94;1616868;86;21086;-57
2022/11/01 10:49:13;;;;;;;11.63;4.55;;;;;;;23.34;49.38;94875.56;1622624;86;22315;-57
2022/11/01 10:51:40;;;;;;;20.88;4.97;;;;;;;24.07;47.28;94870.11;1609619;86;21293;-57
2022/11/01 10:54:15;;;;;;;18.00;5.37;;;;;;;24.87;45.60;94868.51;1628710;86;21080;-55
2022/11/01 10:56:44;;;;;;;18.52;5.05;;;;;;;25.54;43.86;94866.05;1624878;86;21033;-54
2022/11/01 10:59:21;;;;;;;18.73;4.90;;;;;;;26.05;42.57;94864.62;1616778;86;21079;-58
2022/11/01 11:01:52;;;;;;;19.52;7.53;;;;;;;26.41;41.94;94862.78;1644365;86;20998;-59
2022/11/01 11:04:22;;;;;;;17.55;8.43;;;;;;;27.00;40.56;94866.13;1607094;86;22315;-58
2022/11/01 11:06:50;;;;;;;11.93;5.87;;;;;;;27.60;39.24;94858.13;1634297;85;21054;-57
2022/11/01 11:09:31;;;;;;;16.80;6.15;;;;;;;28.10;38.69;94849.00;1627951;86;21606;-61
2022/11/01 11:12:02;;;;;;;13.38;5.50;;;;;;;28.32;37.87;94849.77;1621218;86;21121;-58
2022/11/01 11:14:31;;;;;;;18.17;6.97;;;;;;;28.52;37.79;94846.83;1632339;85;21098;-58
2022/11/01 11:16:59;;;;;;;10.55;5.37;;;;;;;28.82;37.60;94844.06;1640440;86;22766;-59
2022/11/01 11:19:33;;;;;;;13.80;4.92;;;;;;;29.26;36.85;94842.59;1636442;86;21098;-56
2022/11/01 11:22:06;;;;;;;19.20;5.45;;;;;;;29.66;35.97;94841.37;1622277;86;21118;-56
2022/11/01 11:24:39;;;;;;;12.53;5.40;;;;;;;29.97;35.51;94831.52;1620271;87;21080;-63
2022/11/01 11:27:23;;;;;;;15.23;5.50;;;;;;;30.22;35.23;94832.42;1596457;86;21027;-56
2022/11/01 11:29:56;;;;;;;20.05;7.08;;;;;;;30.55;34.47;94838.23;1615335;87;21734;-54
2022/11/01 11:32:29;;;;;;;28.75;6.67;;;;;;;30.96;33.50;94834.77;1649511;85;21072;-55
2022/11/01 11:35:02;;;;;;;15.10;6.25;;;;;;;31.36;33.16;94832.59;1611918;86;21070;-57
2022/11/01 11:37:33;;;;;;;12.80;6.00;;;;;;;31.45;31.92;94831.92;1606685;87;21101;-58
2022/11/01 11:40:23;;;;;;;16.05;7.85;;;;;;;31.07;31.80;94815.81;1636930;85;21608;-54
2022/11/01 11:42:52;;;;;;;45.52;12.30;;;;;;;30.59;32.14;94824.41;1620723;86;21152;-57
2022/11/01 11:45:28;;;;;;;23.77;12.03;;;;;;;30.55;32.30;94814.73;1631616;86;22129;-57
2022/11/01 11:47:59;;;;;;;20.30;10.28;;;;;;;30.60;32.06;94811.70;1627450;86;21049;-59
2022/11/01 11:50:31;;;;;;;35.65;12.05;;;;;;;30.02;32.73;94807.11;1631348;87;21725;-57
2022/11/01 11:53:06;;;;;;;24.60;10.13;;;;;;;29.49;33.86;94807.91;1629675;86;21184;-58
2022/11/01 11:55:55;;;;;;;33.28;10.85;;;;;;;29.39;34.61;94806.97;1634469;86;22137;-56
2022/11/01 11:58:41;;;;;;;38.08;12.03;;;;;;;29.24;34.71;94802.73;1653633;85;21480;-57
2022/11/01 12:01:16;;;;;;;26.48;7.83;;;;;;;29.16;35.04;94794.13;1634098;86;21093;-56
2022/11/01 12:04:10;;;;;;;26.40;6.78;;;;;;;29.05;34.85;94807.26;1640416;86;21066;-57
2022/11/01 12:06:42;;;;;;;20.82;7.62;;;;;;;29.15;34.74;94791.20;1634491;86;21553;-59
2022/11/01 12:09:34;;;;;;;17.80;5.87;;;;;;;29.29;34.41;94793.27;1629847;86;22230;-53
2022/11/01 12:12:12;;;;;;;41.33;7.80;;;;;;;29.51;33.85;94788.25;1627419;86;21025;-60
2022/11/01 12:14:39;;;;;;;31.52;6.85;;;;;;;29.69;33.47;94794.83;1607907;85;21151;-57
2022/11/01 12:17:36;;;;;;;46.48;8.40;;;;;;;29.57;33.40;94789.47;1572372;88;21161;-58
2022/11/01 12:20:21;;;;;;;34.90;7.83;;;;;;;28.95;34.09;94792.16;1591137;87;21148;-59
2022/11/01 12:23:13;;;;;;;27.73;8.65;;;;;;;27.99;35.46;94789.91;1574657;90;21381;-55
2022/11/01 12:25:43;;;;;;;27.45;11.10;;;;;;;27.08;37.51;94783.63;1559575;89;21082;-56
2022/11/01 12:28:28;;;;;;;32.42;14.95;;;;;;;26.19;39.25;94780.72;1587924;88;21082;-56
2022/11/01 12:30:59;;;;;;;37.75;10.13;;;;;;;25.67;40.44;94782.90;1562678;89;21141;-58
2022/11/01 12:33:46;;;;;;;34.95;10.75;;;;;;;25.49;40.82;94773.93;1596480;88;21050;-56
2022/11/01 12:36:14;;;;;;;37.42;8.78;;;;;;;25.79;41.39;94771.47;1577497;87;21809;-56
2022/11/01 12:38:50;;;;;;;22.13;8.63;;;;;;;26.68;39.65;94775.28;1582405;88;21267;-56
2022/11/01 12:41:43;;;;;;;23.15;7.25;;;;;;;27.46;38.88;94769.75;1577128;88;21150;-55
2022/11/01 12:44:34;;;;;;;30.45;9.10;;;;;;;27.87;38.00;94765.35;1579420;89;21179;-58
2022/11/01 12:47:26;;;;;;;31.40;19.77;;;;;;;27.93;37.59;94762.45;1586823;88;21037;-60
2022/11/01 12:50:02;;;;;;;27.82;11.75;;;;;;;28.15;37.50;94754.69;1570338;89;21164;-59
2022/11/01 12:52:58;;;;;;;38.15;14.05;;;;;;;28.80;37.44;94763.80;1585918;87;21018;-58
2022/11/01 12:55:36;;;;;;;29.15;11.03;;;;;;;29.46;35.40;94760.08;1558712;90;21065;-66
2022/11/01 12:58:05;;;;;;;38.28;12.35;;;;;;;30.04;34.61;94755.57;1583346;89;21540;-62
2022/11/01 13:01:20;;;;;;;34.50;14.20;;;;;;;30.40;34.80;94758.78;1579840;90;21080;-61
2022/11/01 13:04:15;;;;;;;24.55;10.53;;;;;;;30.76;33.75;94759.14;1565435;89;21384;-67
2022/11/01 13:07:09;;;;;;;27.67;11.33;;;;;;;30.95;32.25;94749.41;1571993;89;21647;-61
2022/11/01 13:10:01;;;;;;;37.75;10.23;;;;;;;31.12;30.65;94750.91;1566275;90;21100;-56
2022/11/01 13:12:42;;;;;;;34.05;9.48;;;;;;;31.27;29.13;94748.59;1573251;89;21133;-61
2022/11/01 13:15:22;;;;;;;21.73;7.42;;;;;;;31.44;27.30;94750.77;1585602;89;21085;-57
2022/11/01 13:18:19;;;;;;;27.17;7.80;;;;;;;31.72;26.67;94743.20;1573532;89;21213;-59
2022/11/01 13:21:23;;;;;;;31.12;15.25;;;;;;;31.90;26.55;94743.27;1563151;90;21557;-59